Time;durP1;ratioP1;P1;durP2;ratioP2;P2;SDS_P1;SDS_P2;PMS_P1;PMS_P2;Temp;Humidity;BMP_temperature;BMP_pressure;BME280_temperature;BME280_humidity;BME280_pressure;Samples;Min_cycle;Max_cycle;Signal;HPM_P1;HPM_P2
2022/08/05 00:01:51;;;;;;;;;6.00;3.00;;;;;23.99;100.00;101278.00;5037642;28;45582;-70
2022/08/05 00:04:17;;;;;;;;;5.00;3.33;;;;;23.91;100.00;101263.03;5039416;28;60749;-72
2022/08/05 00:06:42;;;;;;;;;4.00;2.00;;;;;23.80;100.00;101249.94;5040062;28;49091;-71
2022/08/05 00:09:08;;;;;;;;;4.67;3.00;;;;;23.69;100.00;101222.50;5040091;28;45321;-71
2022/08/05 00:11:33;;;;;;;;;3.33;3.33;;;;;23.63;100.00;101211.94;5039822;28;54769;-70
2022/08/05 00:13:59;;;;;;;;;5.00;3.00;;;;;23.62;100.00;101277.56;5039280;28;60849;-70
2022/08/05 00:16:24;;;;;;;;;3.00;3.00;;;;;23.58;100.00;101321.72;5039765;28;45199;-70
2022/08/05 00:18:49;;;;;;;;;6.00;3.33;;;;;23.57;100.00;101350.50;5039485;28;45327;-71
2022/08/05 00:21:16;;;;;;;;;4.33;3.00;;;;;23.56;100.00;101354.13;5039917;28;45367;-71
2022/08/05 00:23:44;;;;;;;;;3.67;2.33;;;;;23.53;100.00;101395.53;5039977;28;45375;-71
2022/08/05 00:26:09;;;;;;;;;2.00;2.00;;;;;23.54;100.00;101431.47;5039560;28;46678;-69
2022/08/05 00:28:35;;;;;;;;;4.00;2.33;;;;;23.51;100.00;101365.06;5032749;28;66548;-71
2022/08/05 00:31:00;;;;;;;;;2.00;2.00;;;;;23.45;100.00;101314.06;5055633;28;45332;-71
2022/08/05 00:33:26;;;;;;;;;3.00;3.00;;;;;23.44;100.00;101300.66;5039971;28;45228;-70
2022/08/05 00:35:51;;;;;;;;;7.00;3.00;;;;;23.42;100.00;101302.50;5038926;28;64596;-70
2022/08/05 00:38:17;;;;;;;;;5.33;4.67;;;;;23.41;100.00;101293.56;5038849;28;63985;-70
2022/08/05 00:40:52;;;;;;;;;4.33;3.00;;;;;23.42;100.00;101381.53;5038940;28;65129;-70
2022/08/05 00:43:18;;;;;;;;;6.00;4.00;;;;;23.42;100.00;101443.53;5039668;28;45370;-70
2022/08/05 00:45:44;;;;;;;;;6.00;4.00;;;;;23.41;100.00;101398.66;5039324;28;46760;-70
2022/08/05 00:48:11;;;;;;;;;7.00;3.00;;;;;23.40;100.00;101334.03;5039669;28;45451;-71
2022/08/05 00:50:38;;;;;;;;;3.33;3.33;;;;;23.35;100.00;101358.44;5039686;28;45228;-72
2022/08/05 00:53:03;;;;;;;;;3.00;3.00;;;;;23.32;100.00;101373.81;5039307;28;45608;-70
2022/08/05 00:55:29;;;;;;;;;5.33;4.00;;;;;23.30;100.00;101327.19;5039488;28;46854;-70
2022/08/05 00:57:54;;;;;;;;;6.33;6.00;;;;;23.26;100.00;101321.03;5038281;28;65927;-71
2022/08/05 01:00:19;;;;;;;;;4.00;4.00;;;;;23.21;100.00;101321.16;5038776;28;61709;-71
2022/08/05 01:02:45;;;;;;;;;3.67;3.00;;;;;23.22;100.00;101346.28;5039772;28;45255;-70
2022/08/05 01:05:11;;;;;;;;;1.00;1.00;;;;;23.14;100.00;101365.41;5038779;28;61190;-69
2022/08/05 01:07:36;;;;;;;;;5.00;3.33;;;;;23.13;100.00;101354.72;5039187;28;45368;-71
2022/08/05 01:10:02;;;;;;;;;4.00;2.00;;;;;23.08;100.00;101327.91;5039266;28;45301;-70
2022/08/05 01:12:28;;;;;;;;;6.33;3.33;;;;;23.10;100.00;101352.97;5039011;28;45499;-71
2022/08/05 01:15:01;;;;;;;;;4.33;2.33;;;;;23.09;100.00;101335.06;5037250;28;71115;-69
2022/08/05 01:17:32;;;;;;;;;4.00;3.00;;;;;23.07;100.00;101338.75;5037596;28;45544;-71
2022/08/05 01:20:10;;;;;;;;;2.00;2.00;;;;;23.06;100.00;101345.91;5039099;28;45229;-72
2022/08/05 01:22:41;;;;;;;;;3.33;3.33;;;;;23.07;100.00;101363.00;5037722;28;45566;-70
2022/08/05 01:25:22;;;;;;;;;3.00;3.00;;;;;23.07;100.00;101365.69;5038921;28;46058;-68
2022/08/05 01:28:21;;;;;;;;;5.00;3.00;;;;;23.02;100.00;101324.56;5038575;28;45357;-71
2022/08/05 01:31:11;;;;;;;;;3.00;3.00;;;;;23.00;100.00;101336.22;5054429;28;45244;-71
2022/08/05 01:33:49;;;;;;;;;3.00;3.00;;;;;22.97;100.00;101312.09;5032535;28;45551;-71
2022/08/05 01:36:15;;;;;;;;;4.00;4.00;;;;;22.96;100.00;101293.31;5054100;28;45332;-71
2022/08/05 01:38:43;;;;;;;;;3.00;3.00;;;;;22.93;100.00;101280.81;5054011;28;45306;-71
2022/08/05 01:41:09;;;;;;;;;3.00;3.00;;;;;22.92;100.00;101265.59;5038951;28;45335;-70
2022/08/05 01:43:34;;;;;;;;;5.00;4.67;;;;;22.89;100.00;101248.66;5053729;28;57800;-72
2022/08/05 01:46:00;;;;;;;;;3.00;3.00;;;;;22.87;100.00;101248.66;5038313;28;45398;-72
2022/08/05 01:48:26;;;;;;;;;3.00;3.00;;;;;22.84;100.00;101266.72;5054052;28;45584;-72
2022/08/05 01:50:54;;;;;;;;;8.00;5.00;;;;;22.82;100.00;101282.94;5054250;28;45386;-73
2022/08/05 01:53:21;;;;;;;;;4.00;4.00;;;;;22.83;100.00;101300.84;5053980;28;45255;-70
2022/08/05 01:55:48;;;;;;;;;4.67;3.00;;;;;22.81;100.00;101302.72;5054058;28;46235;-71
2022/08/05 01:58:15;;;;;;;;;3.00;3.00;;;;;22.83;100.00;101334.97;5037980;28;45276;-73
2022/08/05 02:00:43;;;;;;;;;5.00;2.33;;;;;22.81;100.00;101302.72;5054121;28;45372;-70
2022/08/05 02:03:23;;;;;;;;;2.67;2.67;;;;;22.80;100.00;101268.66;5054309;28;45336;-72
2022/08/05 02:05:50;;;;;;;;;5.33;4.00;;;;;22.77;100.00;101257.97;5038213;28;46694;-73
2022/08/05 02:08:16;;;;;;;;;3.33;3.00;;;;;22.80;100.00;101248.91;5038142;28;45264;-72
2022/08/05 02:10:44;;;;;;;;;2.33;2.33;;;;;22.78;100.00;101256.16;5037982;28;50548;-73
2022/08/05 02:13:16;;;;;;;;;4.67;3.33;;;;;22.80;100.00;101292.91;5053984;28;45418;-72
2022/08/05 02:15:45;;;;;;;;;4.00;3.00;;;;;22.80;100.00;101306.34;5053290;28;46539;-70
2022/08/05 02:18:19;;;;;;;;;6.33;4.00;;;;;22.78;100.00;101289.34;5053655;28;45279;-73
2022/08/05 02:20:50;;;;;;;;;3.00;3.00;;;;;22.79;100.00;101291.09;5053473;28;45604;-71
2022/08/05 02:23:19;;;;;;;;;2.33;2.33;;;;;22.77;100.00;101278.66;5038173;28;45456;-73
2022/08/05 02:25:45;;;;;;;;;4.00;3.00;;;;;22.75;100.00;101295.72;5052527;28;46899;-72
2022/08/05 02:28:12;;;;;;;;;4.67;4.00;;;;;22.77;100.00;101319.91;5053212;28;45342;-71
2022/08/05 02:30:46;;;;;;;;;3.00;3.00;;;;;22.79;100.00;101333.31;5053280;28;45334;-72
2022/08/05 02:33:17;;;;;;;;;3.00;3.00;;;;;22.81;100.00;101340.44;5053768;28;45332;-72
2022/08/05 02:35:44;;;;;;;;;2.33;2.00;;;;;22.80;100.00;101327.00;5053272;28;45934;-70
2022/08/05 02:38:11;;;;;;;;;3.67;3.00;;;;;22.81;100.00;101340.44;5053403;28;45367;-71
2022/08/05 02:40:41;;;;;;;;;2.00;2.00;;;;;22.78;100.00;101347.72;5053246;28;45328;-72
2022/08/05 02:43:07;;;;;;;;;5.00;3.00;;;;;22.74;100.00;101361.28;5053488;28;45481;-72
2022/08/05 02:45:32;;;;;;;;;2.00;2.00;;;;;22.68;100.00;101336.34;5052928;28;46008;-72
2022/08/05 02:47:59;;;;;;;;;3.00;3.00;;;;;22.65;100.00;101313.09;5053190;28;45241;-71
2022/08/05 02:50:25;;;;;;;;;6.00;3.00;;;;;22.64;100.00;101300.59;5052628;28;57041;-71
2022/08/05 02:52:52;;;;;;;;;2.67;2.67;;;;;22.60;100.00;101280.06;5052619;28;56196;-71
2022/08/05 02:55:18;;;;;;;;;3.00;3.00;;;;;22.59;100.00;101266.66;5052536;28;46389;-71
2022/08/05 02:57:44;;;;;;;;;2.00;2.00;;;;;22.58;100.00;101248.72;5037707;28;45224;-71
2022/08/05 03:00:11;;;;;;;;;3.00;3.00;;;;;22.53;100.00;101246.22;5035870;28;49533;-72
2022/08/05 03:02:39;;;;;;;;;3.00;3.00;;;;;22.52;100.00;101265.06;5037542;28;45377;-72
2022/08/05 03:05:08;;;;;;;;;5.00;4.00;;;;;22.49;100.00;101295.66;5052940;28;46634;-71
2022/08/05 03:07:33;;;;;;;;;3.00;3.00;;;;;22.48;100.00;101305.56;5052853;28;45299;-73
2022/08/05 03:09:59;;;;;;;;;3.00;3.00;;;;;22.49;100.00;101314.50;5036849;28;58507;-71
2022/08/05 03:12:52;;;;;;;;;2.67;2.67;;;;;22.45;100.00;101319.09;5036754;28;60260;-73
2022/08/05 03:15:19;;;;;;;;;4.33;3.00;;;;;22.43;100.00;101320.09;5034056;28;46688;-72
2022/08/05 03:17:44;;;;;;;;;2.67;2.67;;;;;22.40;100.00;101315.66;5037124;28;45393;-72
2022/08/05 03:20:10;;;;;;;;;4.67;3.00;;;;;22.39;100.00;101308.53;5037306;28;45434;-72
2022/08/05 03:22:35;;;;;;;;;4.33;3.33;;;;;22.37;100.00;101304.09;5036800;28;45338;-72
2022/08/05 03:25:01;;;;;;;;;3.67;3.00;;;;;22.33;100.00;101308.72;5036939;28;45624;-72
2022/08/05 03:27:27;;;;;;;;;3.00;3.00;;;;;22.29;100.00;101300.78;5052023;28;45554;-71
2022/08/05 03:29:52;;;;;;;;;5.00;4.00;;;;;22.29;100.00;101304.34;5037319;28;45353;-70
2022/08/05 03:32:18;;;;;;;;;3.00;3.00;;;;;22.28;100.00;101307.09;5052665;28;45494;-71
2022/08/05 03:34:44;;;;;;;;;5.00;3.00;;;;;22.26;100.00;101314.31;5036859;28;45905;-72
2022/08/05 03:37:10;;;;;;;;;4.67;4.67;;;;;22.26;100.00;101312.50;5036142;28;45431;-71
2022/08/05 03:39:36;;;;;;;;;5.67;4.33;;;;;22.25;100.00;101301.78;5037090;28;45271;-71
2022/08/05 03:42:02;;;;;;;;;4.00;3.00;;;;;22.25;100.00;101313.44;5037527;28;45702;-71
2022/08/05 03:44:27;;;;;;;;;4.33;3.00;;;;;22.22;100.00;101306.34;5036873;28;45992;-70
2022/08/05 03:46:52;;;;;;;;;3.33;3.33;;;;;22.27;100.00;101324.16;5036060;28;55706;-71
2022/08/05 03:49:18;;;;;;;;;4.00;4.00;;;;;22.26;100.00;101317.88;5036306;28;58381;-73
2022/08/05 03:51:56;;;;;;;;;5.00;3.33;;;;;22.29;100.00;101322.31;5036995;28;45512;-72
2022/08/05 03:54:36;;;;;;;;;2.67;2.67;;;;;22.29;100.00;101319.59;5052208;28;45700;-70
2022/08/05 03:57:02;;;;;;;;;2.00;2.00;;;;;22.29;100.00;101323.19;5025543;28;45355;-72
2022/08/05 03:59:34;;;;;;;;;4.67;3.00;;;;;22.25;100.00;101316.13;5052101;28;45264;-71
2022/08/05 04:02:01;;;;;;;;;5.00;3.00;;;;;22.26;100.00;101328.63;5052521;28;45594;-71
2022/08/05 04:04:28;;;;;;;;;6.33;3.00;;;;;22.24;100.00;101335.88;5051919;28;45927;-71
2022/08/05 04:06:54;;;;;;;;;3.33;3.00;;;;;22.23;100.00;101324.25;5035445;28;45404;-71
2022/08/05 04:09:20;;;;;;;;;3.00;3.00;;;;;22.22;100.00;101322.50;5035831;28;60450;-72
2022/08/05 04:11:45;;;;;;;;;4.00;4.00;;;;;22.20;100.00;101315.38;5036796;28;45512;-72
2022/08/05 04:14:10;;;;;;;;;4.33;4.33;;;;;22.19;100.00;101319.00;5035055;28;46513;-72
2022/08/05 04:16:37;;;;;;;;;3.33;3.33;;;;;22.17;100.00;101312.78;5036268;28;45306;-72
2022/08/05 04:19:03;;;;;;;;;2.00;2.00;;;;;22.15;100.00;101312.81;5036190;28;45406;-70
2022/08/05 04:21:28;;;;;;;;;6.00;4.33;;;;;22.20;100.00;101320.75;5036431;28;45470;-70
2022/08/05 04:23:54;;;;;;;;;5.00;3.67;;;;;22.22;100.00;101317.09;5051523;28;45728;-72
2022/08/05 04:26:19;;;;;;;;;3.33;2.33;;;;;22.23;100.00;101318.88;5036113;28;45328;-72
2022/08/05 04:28:45;;;;;;;;;2.67;2.00;;;;;22.23;100.00;101320.66;5051224;28;55515;-72
2022/08/05 04:31:10;;;;;;;;;3.67;3.67;;;;;22.22;100.00;101316.22;5036494;28;45437;-72
2022/08/05 04:33:36;;;;;;;;;6.00;3.00;;;;;22.21;100.00;101317.13;5035189;28;68751;-70
2022/08/05 04:36:01;;;;;;;;;3.67;3.00;;;;;22.17;100.00;101310.09;5017598;28;64368;-72
2022/08/05 04:38:26;;;;;;;;;3.00;3.00;;;;;22.14;100.00;101318.25;5035923;28;48684;-70
2022/08/05 04:40:52;;;;;;;;;2.00;2.00;;;;;22.08;100.00;101319.28;5051588;28;56457;-71
2022/08/05 04:43:17;;;;;;;;;4.33;3.00;;;;;22.04;100.00;101322.09;5034939;28;67331;-72
2022/08/05 04:45:42;;;;;;;;;3.67;3.00;;;;;22.02;100.00;101330.22;5036087;28;45166;-70
2022/08/05 04:48:14;;;;;;;;;3.67;3.00;;;;;21.96;100.00;101333.97;5036893;28;54422;-71
2022/08/05 04:50:43;;;;;;;;;4.33;3.33;;;;;21.96;100.00;101330.38;5039678;28;45458;-72
2022/08/05 04:53:09;;;;;;;;;4.33;3.00;;;;;21.92;100.00;101328.69;5039284;28;45835;-72
2022/08/05 04:55:39;;;;;;;;;4.33;4.33;;;;;21.88;100.00;101330.59;5038237;28;45348;-71
2022/08/05 04:58:06;;;;;;;;;6.00;3.67;;;;;21.86;100.00;101337.81;5039500;28;45366;-72
2022/08/05 05:00:33;;;;;;;;;4.33;3.00;;;;;21.86;100.00;101345.00;5039373;28;45251;-72
2022/08/05 05:02:58;;;;;;;;;6.00;4.00;;;;;21.86;100.00;101348.56;5039510;28;45874;-71
2022/08/05 05:05:24;;;;;;;;;4.67;4.00;;;;;21.90;100.00;101355.66;5039347;28;45359;-71
2022/08/05 05:07:49;;;;;;;;;4.00;2.67;;;;;21.91;100.00;101352.03;5054770;28;45339;-71
2022/08/05 05:10:14;;;;;;;;;3.33;3.33;;;;;21.92;100.00;101353.78;5038632;28;62717;-72
2022/08/05 05:12:40;;;;;;;;;3.00;3.00;;;;;21.94;100.00;101357.34;5038114;28;66033;-73
2022/08/05 05:15:05;;;;;;;;;4.00;4.00;;;;;21.93;100.00;101352.84;5038873;28;49075;-72
2022/08/05 05:17:38;;;;;;;;;4.00;4.00;;;;;21.96;100.00;101362.66;5054493;28;45327;-72
2022/08/05 05:20:05;;;;;;;;;3.00;3.00;;;;;21.94;100.00;101368.09;5039147;28;45276;-71
2022/08/05 05:22:30;;;;;;;;;8.00;5.00;;;;;21.96;100.00;101371.59;5037401;28;45449;-72
2022/08/05 05:24:56;;;;;;;;;8.00;3.67;;;;;21.94;100.00;101376.16;5038125;28;63486;-72
2022/08/05 05:27:21;;;;;;;;;4.33;3.00;;;;;21.98;100.00;101379.63;5037838;28;60039;-71
2022/08/05 05:29:46;;;;;;;;;7.00;4.00;;;;;22.01;100.00;101389.44;5038745;28;52868;-70
2022/08/05 05:32:12;;;;;;;;;7.33;5.00;;;;;21.98;100.00;101377.81;5053660;28;57670;-71
2022/08/05 05:34:37;;;;;;;;;4.00;4.00;;;;;21.96;100.00;101389.53;5037923;28;67237;-71
2022/08/05 05:37:02;;;;;;;;;6.67;5.00;;;;;21.92;100.00;101401.31;5038085;28;61685;-72
2022/08/05 05:39:28;;;;;;;;;5.33;5.33;;;;;21.83;100.00;101397.03;5038975;28;45398;-71
2022/08/05 05:41:53;;;;;;;;;5.33;4.00;;;;;21.76;100.00;101403.50;5038049;28;61748;-71
2022/08/05 05:44:18;;;;;;;;;7.33;4.33;;;;;21.72;100.00;101404.50;5038099;28;60552;-72
2022/08/05 05:46:44;;;;;;;;;2.33;2.33;;;;;21.66;100.00;101404.66;5037968;28;55053;-71
2022/08/05 05:49:09;;;;;;;;;5.33;4.67;;;;;21.59;100.00;101408.44;5053877;28;53001;-71
2022/08/05 05:51:34;;;;;;;;;5.00;5.00;;;;;21.55;100.00;101404.94;5037660;28;66250;-70
2022/08/05 05:54:00;;;;;;;;;3.33;3.33;;;;;21.53;100.00;101396.06;5037590;28;65817;-70
2022/08/05 05:56:31;;;;;;;;;6.00;6.00;;;;;21.54;100.00;101399.63;5038481;28;45292;-71
2022/08/05 05:58:56;;;;;;;;;8.00;5.00;;;;;21.50;100.00;101403.28;5037832;28;45415;-71
2022/08/05 06:01:21;;;;;;;;;4.00;4.00;;;;;21.51;100.00;101405.06;5036775;28;70082;-71
2022/08/05 06:03:47;;;;;;;;;4.00;4.00;;;;;21.50;100.00;101411.38;5038093;28;52345;-72
2022/08/05 06:06:12;;;;;;;;;6.00;4.00;;;;;21.49;100.00;101407.78;5038252;28;45241;-71
2022/08/05 06:08:38;;;;;;;;;6.00;6.00;;;;;21.49;100.00;101423.03;5054265;28;45462;-72
2022/08/05 06:11:03;;;;;;;;;5.00;5.00;;;;;21.46;100.00;101426.66;5054066;28;46323;-72
2022/08/05 06:13:28;;;;;;;;;5.00;5.00;;;;;21.44;100.00;101423.16;5037567;28;45387;-72
2022/08/05 06:15:54;;;;;;;;;10.00;6.00;;;;;21.42;100.00;101427.69;5037350;28;62321;-71
2022/08/05 06:18:19;;;;;;;;;4.33;4.33;;;;;21.40;100.00;101432.19;5037532;28;60708;-71
2022/08/05 06:20:45;;;;;;;;;7.00;5.33;;;;;21.36;100.00;101438.56;5037016;28;64514;-71
2022/08/05 06:23:10;;;;;;;;;6.00;6.00;;;;;21.34;100.00;101435.03;5037430;28;55924;-71
2022/08/05 06:25:35;;;;;;;;;10.00;5.00;;;;;21.35;100.00;101437.66;5037314;28;59275;-71
2022/08/05 06:28:00;;;;;;;;;6.67;4.67;;;;;21.38;100.00;101444.78;5037295;28;49953;-71
2022/08/05 06:30:26;;;;;;;;;5.00;5.00;;;;;21.41;100.00;101440.25;5036951;28;67211;-71
2022/08/05 06:32:52;;;;;;;;;6.00;5.00;;;;;21.43;100.00;101437.50;5037057;28;64915;-71
2022/08/05 06:35:18;;;;;;;;;5.00;5.00;;;;;21.45;100.00;101441.91;5036740;28;45489;-70
2022/08/05 06:37:44;;;;;;;;;5.00;5.00;;;;;21.44;100.00;101431.19;5053678;28;45383;-70
2022/08/05 06:40:10;;;;;;;;;7.00;5.00;;;;;21.49;100.00;101433.78;5036758;28;69897;-72
2022/08/05 06:42:36;;;;;;;;;7.67;6.33;;;;;21.52;100.00;101441.75;5053168;28;45370;-70
2022/08/05 06:45:02;;;;;;;;;7.00;5.33;;;;;21.51;100.00;101438.19;5037836;28;45473;-70
2022/08/05 06:47:28;;;;;;;;;4.67;4.67;;;;;21.57;100.00;101440.75;5037735;28;45551;-71
2022/08/05 06:49:53;;;;;;;;;5.67;5.67;;;;;21.62;100.00;101432.53;5036664;28;61354;-70
2022/08/05 06:52:19;;;;;;;;;5.33;5.33;;;;;21.63;100.00;101432.53;5037914;28;45220;-70
2022/08/05 06:54:44;;;;;;;;;5.00;5.00;;;;;21.66;100.00;101435.13;5037320;28;45819;-72
2022/08/05 06:57:13;;;;;;;;;6.00;6.00;;;;;21.69;100.00;101447.63;5037112;28;56376;-72
2022/08/05 06:59:38;;;;;;;;;7.00;6.00;;;;;21.71;100.00;101446.63;5037271;28;47739;-72
2022/08/05 07:02:04;;;;;;;;;7.33;6.00;;;;;21.76;100.00;101445.66;5037656;28;45380;-71
2022/08/05 07:04:29;;;;;;;;;10.33;6.67;;;;;21.79;100.00;101448.28;5036615;28;60177;-71
2022/08/05 07:06:54;;;;;;;;;9.00;6.33;;;;;21.82;100.00;101449.06;5036959;28;59462;-70
2022/08/05 07:09:20;;;;;;;;;6.00;5.33;;;;;21.88;100.00;101456.94;5037458;28;45793;-71
2022/08/05 07:11:45;;;;;;;;;6.33;6.00;;;;;21.90;100.00;101455.13;5037342;28;45297;-70
2022/08/05 07:16:59;;;;;;;;;6.00;5.33;;;;;21.97;100.00;101462.09;5037185;28;45351;-71
2022/08/05 07:19:25;;;;;;;;;7.67;4.33;;;;;21.99;100.00;101456.69;5036706;28;46567;-71
2022/08/05 07:21:50;;;;;;;;;10.00;5.33;;;;;22.00;100.00;101458.47;5035852;28;45432;-72
2022/08/05 07:24:17;;;;;;;;;5.00;5.00;;;;;22.01;100.00;101457.53;5036623;28;58836;-71
2022/08/05 07:26:45;;;;;;;;;7.33;4.67;;;;;22.03;100.00;101470.94;5037128;28;45230;-71
2022/08/05 07:29:11;;;;;;;;;5.33;5.33;;;;;22.08;100.00;101471.69;5036925;28;47902;-72
2022/08/05 07:31:37;;;;;;;;;6.00;5.00;;;;;22.12;100.00;101481.50;5036986;28;45315;-72
2022/08/05 07:34:02;;;;;;;;;4.00;4.00;;;;;22.13;100.00;101475.19;5052568;28;45545;-72
2022/08/05 07:36:28;;;;;;;;;6.00;6.00;;;;;22.15;100.00;101481.41;5035990;28;45514;-71
2022/08/05 07:38:54;;;;;;;;;6.00;6.00;;;;;22.19;100.00;101486.66;5037104;28;46309;-71
2022/08/05 07:41:20;;;;;;;;;6.33;6.33;;;;;22.18;100.00;101486.72;5036934;28;47239;-72
2022/08/05 07:43:46;;;;;;;;;6.00;6.00;;;;;22.18;100.00;101492.97;5036981;28;45285;-71
2022/08/05 07:46:11;;;;;;;;;6.33;6.33;;;;;22.20;100.00;101493.78;5036848;28;45225;-71
2022/08/05 07:48:37;;;;;;;;;8.33;6.00;;;;;22.22;100.00;101499.16;5052318;28;46965;-72
2022/08/05 07:51:02;;;;;;;;;6.00;6.00;;;;;22.23;100.00;101495.53;5051462;28;66827;-71
2022/08/05 07:53:27;;;;;;;;;9.67;6.33;;;;;22.22;100.00;101497.34;5036949;28;45485;-70
2022/08/05 07:55:53;;;;;;;;;10.67;9.00;;;;;22.25;100.00;101509.81;5036385;28;59546;-72
2022/08/05 07:58:18;;;;;;;;;9.67;7.00;;;;;22.23;100.00;101507.19;5036088;28;66259;-73
2022/08/05 08:00:44;;;;;;;;;8.00;8.00;;;;;22.26;100.00;101511.56;5036519;28;45369;-72
2022/08/05 08:03:10;;;;;;;;;10.67;9.00;;;;;22.28;100.00;101515.13;5036494;28;45300;-71
2022/08/05 08:05:36;;;;;;;;;8.00;7.00;;;;;22.30;100.00;101515.97;5035681;28;45441;-71
2022/08/05 08:08:01;;;;;;;;;9.00;8.00;;;;;22.36;100.00;101522.97;5036234;28;46556;-71
2022/08/05 08:10:27;;;;;;;;;8.67;7.33;;;;;22.36;100.00;101515.78;5036634;28;45484;-70
2022/08/05 08:12:53;;;;;;;;;9.33;8.00;;;;;22.42;100.00;101531.75;5037302;28;45538;-72
2022/08/05 08:15:18;;;;;;;;;6.33;6.33;;;;;22.41;100.00;101529.13;5035271;28;45387;-73
2022/08/05 08:17:44;;;;;;;;;5.67;5.67;;;;;22.43;100.00;101530.88;5052296;28;58985;-72
2022/08/05 08:20:09;;;;;;;;;7.00;4.33;;;;;22.47;100.00;101534.34;5036727;28;45181;-72
2022/08/05 08:22:35;;;;;;;;;8.00;6.67;;;;;22.50;100.00;101542.34;5037003;28;45340;-70
2022/08/05 08:25:00;;;;;;;;;9.33;7.00;;;;;22.51;100.00;101537.84;5040300;28;45276;-71
2022/08/05 08:27:25;;;;;;;;;8.00;6.67;;;;;22.53;100.00;101538.66;5039273;28;46531;-71
2022/08/05 08:29:51;;;;;;;;;10.00;7.00;;;;;22.56;100.00;101542.16;5039347;28;57913;-71
2022/08/05 08:32:16;;;;;;;;;6.67;3.33;;;;;22.59;100.00;101546.59;5040005;28;45277;-72
2022/08/05 08:34:42;;;;;;;;;5.67;5.67;;;;;22.62;100.00;101551.88;5040080;28;45629;-71
2022/08/05 08:37:07;;;;;;;;;6.00;6.00;;;;;22.62;100.00;101551.88;5055216;28;45946;-71
2022/08/05 08:39:33;;;;;;;;;7.00;5.33;;;;;22.65;100.00;101552.69;5038755;28;67163;-71
2022/08/05 08:42:00;;;;;;;;;5.67;4.67;;;;;22.70;100.00;101563.34;5055407;28;45244;-72
2022/08/05 08:44:28;;;;;;;;;6.00;6.00;;;;;22.71;100.00;101549.81;5055409;28;45562;-70
2022/08/05 08:46:55;;;;;;;;;4.00;4.00;;;;;22.76;100.00;101557.78;5039001;28;45692;-71
2022/08/05 08:52:02;;;;;;;;;5.00;5.00;;;;;22.84;100.00;101561.13;5048529;22;45297;-71
2022/08/05 08:54:28;;;;;;;;;6.00;5.00;;;;;22.90;100.00;101558.28;5019136;28;45337;-71
2022/08/05 08:56:54;;;;;;;;;5.00;4.00;;;;;22.93;100.00;101560.91;5018372;28;45718;-72
2022/08/05 08:59:19;;;;;;;;;7.00;5.00;;;;;22.96;100.00;101568.03;5026825;28;61474;-72
2022/08/05 09:01:45;;;;;;;;;5.67;3.33;;;;;23.03;100.00;101571.44;5018925;28;63806;-72
2022/08/05 09:04:12;;;;;;;;;6.00;5.67;;;;;23.03;100.00;101582.19;5019467;28;45270;-71
2022/08/05 09:06:37;;;;;;;;;6.33;4.33;;;;;23.06;100.00;101577.59;5019260;28;45337;-72
2022/08/05 09:09:02;;;;;;;;;6.33;5.00;;;;;23.09;100.00;101571.25;5017477;28;59117;-71
2022/08/05 09:11:28;;;;;;;;;6.00;6.00;;;;;23.15;100.00;101579.13;5018357;28;45317;-71
2022/08/05 09:13:55;;;;;;;;;6.67;5.33;;;;;23.19;100.00;101579.00;5019550;28;45361;-71
2022/08/05 09:16:20;;;;;;;;;4.67;4.67;;;;;23.24;100.00;101576.19;5001071;28;45895;-71
2022/08/05 09:18:47;;;;;;;;;7.67;6.00;;;;;23.29;100.00;101567.97;5019179;28;45324;-71
2022/08/05 09:21:13;;;;;;;;;8.33;7.00;;;;;23.35;100.00;101582.13;5021346;28;45495;-71
2022/08/05 09:23:38;;;;;;;;;8.67;7.67;;;;;23.43;99.94;101584.56;5008440;28;45368;-72
2022/08/05 09:26:07;;;;;;;;;5.67;5.67;;;;;23.46;99.00;101580.00;5018272;28;70335;-72
2022/08/05 09:28:33;;;;;;;;;6.67;5.00;;;;;23.49;98.75;101582.59;5044025;28;45339;-71
2022/08/05 09:31:11;;;;;;;;;9.00;6.00;;;;;23.55;98.96;101591.44;5021285;28;45381;-72
2022/08/05 09:34:08;;;;;;;;;7.00;6.33;;;;;23.62;98.86;101575.00;5038955;28;45312;-72
2022/08/05 09:36:47;;;;;;;;;7.67;6.33;;;;;23.69;98.76;101581.13;5025892;28;45294;-73
2022/08/05 09:39:13;;;;;;;;;8.00;6.33;;;;;23.75;97.89;101576.41;5038739;28;45367;-71
2022/08/05 09:41:59;;;;;;;;;9.67;7.00;;;;;23.81;96.60;101571.75;5038866;28;45491;-71
2022/08/05 09:44:42;;;;;;;;;7.33;5.67;;;;;23.89;95.79;101575.09;5021183;28;45543;-71
2022/08/05 09:47:16;;;;;;;;;8.67;7.00;;;;;23.94;95.58;101574.00;5020617;28;46387;-71
2022/08/05 09:49:44;;;;;;;;;10.67;8.00;;;;;24.03;96.09;101578.22;5038328;28;45473;-70
2022/08/05 09:52:20;;;;;;;;;7.33;7.33;;;;;24.13;96.00;101570.69;5038822;28;45308;-71
2022/08/05 09:55:11;;;;;;;;;5.33;5.33;;;;;24.27;94.67;101585.50;5038904;28;45333;-72
2022/08/05 09:57:46;;;;;;;;;9.00;7.67;;;;;24.36;94.12;101583.44;5018574;28;46474;-70
2022/08/05 10:00:18;;;;;;;;;9.67;7.33;;;;;24.44;93.04;101582.22;5020752;28;45277;-72
2022/08/05 10:02:49;;;;;;;;;9.33;8.00;;;;;24.50;93.32;101581.13;5038469;28;45339;-71
2022/08/05 10:05:19;;;;;;;;;9.67;9.00;;;;;24.54;92.70;101580.09;5038708;28;45363;-72
2022/08/05 10:07:51;;;;;;;;;9.00;9.00;;;;;24.54;91.62;101580.09;5021073;28;46707;-71
2022/08/05 10:10:24;;;;;;;;;12.00;7.33;;;;;24.51;91.22;101567.59;5038244;28;45320;-71
2022/08/05 10:12:56;;;;;;;;;9.67;8.33;;;;;24.53;91.43;101572.94;5037131;28;45446;-72
2022/08/05 10:15:26;;;;;;;;;10.00;9.00;;;;;24.55;90.02;101571.97;5019968;28;45392;-72
2022/08/05 10:18:04;;;;;;;;;7.00;7.00;;;;;24.61;90.02;101572.66;5038165;28;45622;-70
2022/08/05 10:20:31;;;;;;;;;9.00;8.67;;;;;24.60;88.97;101569.06;5037524;28;45301;-71
2022/08/05 10:22:57;;;;;;;;;5.00;5.00;;;;;24.63;89.63;101571.69;5020154;28;45334;-70
2022/08/05 10:25:22;;;;;;;;;5.33;4.00;;;;;24.70;89.57;101562.41;5037634;28;55045;-71
2022/08/05 10:27:47;;;;;;;;;10.00;8.33;;;;;24.76;89.32;101574.81;5043180;28;70870;-71
2022/08/05 10:30:13;;;;;;;;;5.00;5.00;;;;;24.79;87.68;101574.72;5036377;28;58482;-72
2022/08/05 10:32:38;;;;;;;;;8.33;7.00;;;;;24.85;86.22;101577.19;5038779;28;45570;-73
2022/08/05 10:35:04;;;;;;;;;7.00;7.00;;;;;24.97;87.06;101576.72;5037979;28;45505;-71
2022/08/05 10:37:31;;;;;;;;;8.67;7.67;;;;;25.11;86.18;101564.56;5037717;28;45334;-72
2022/08/05 10:40:00;;;;;;;;;7.00;6.00;;;;;25.17;85.13;101569.75;5036527;28;45299;-71
2022/08/05 10:42:27;;;;;;;;;10.00;8.33;;;;;25.24;83.99;101580.25;5036645;28;45225;-72
2022/08/05 10:44:54;;;;;;;;;7.00;5.00;;;;;25.30;83.66;101574.63;5036513;28;45338;-70
2022/08/05 10:47:19;;;;;;;;;8.67;7.00;;;;;25.42;83.78;101577.78;5035565;28;45859;-71
2022/08/05 10:50:04;;;;;;;;;6.33;6.33;;;;;25.59;84.31;101568.06;5037383;28;45435;-72
2022/08/05 10:52:46;;;;;;;;;8.00;7.00;;;;;25.77;82.83;101582.69;5037797;28;45373;-72
2022/08/05 10:55:12;;;;;;;;;9.00;7.67;;;;;25.81;82.36;101584.34;5037895;28;45158;-71
2022/08/05 10:57:40;;;;;;;;;8.00;7.00;;;;;25.79;81.83;101588.06;5037353;28;46496;-72
2022/08/05 11:00:21;;;;;;;;;10.00;7.00;;;;;25.69;80.65;101584.81;5037472;28;45989;-72
2022/08/05 11:03:05;;;;;;;;;8.00;8.00;;;;;25.64;81.60;101588.66;5037447;28;45368;-73
2022/08/05 11:05:33;;;;;;;;;8.33;7.00;;;;;25.68;80.25;101593.00;5037472;28;45664;-71
2022/08/05 11:08:01;;;;;;;;;8.00;7.67;;;;;25.85;81.57;101601.34;5037265;28;46687;-70
2022/08/05 11:10:27;;;;;;;;;6.00;6.00;;;;;26.01;80.42;101591.66;5037403;28;45391;-72
2022/08/05 11:12:53;;;;;;;;;7.00;7.00;;;;;26.20;80.46;101591.75;5037646;28;45325;-71
2022/08/05 11:15:20;;;;;;;;;8.67;6.33;;;;;26.26;78.90;101590.63;5037265;28;45373;-70
2022/08/05 11:18:06;;;;;;;;;5.00;5.00;;;;;26.30;78.41;101603.97;5037186;28;45488;-73
2022/08/05 11:20:38;;;;;;;;;7.33;6.00;;;;;26.27;76.78;101611.34;5036802;28;45387;-71
2022/08/05 11:23:33;;;;;;;;;2.00;2.00;;;;;26.25;75.72;101613.22;5037231;28;45512;-71
2022/08/05 11:26:01;;;;;;;;;7.00;7.00;;;;;26.33;75.54;101598.44;5036042;28;45261;-72
2022/08/05 11:28:26;;;;;;;;;9.33;7.00;;;;;26.51;75.27;101604.03;5043079;28;46217;-72